createdAt,value
2022-09-15T00:00:51.368Z,1117.34
2022-09-15T00:01:51.465Z,1117.41
2022-09-15T00:02:51.510Z,1117.45
2022-09-15T00:03:51.400Z,1117.43
2022-09-15T00:04:51.377Z,1117.48
2022-09-15T00:05:51.377Z,1117.55
2022-09-15T00:06:51.383Z,1117.54
2022-09-15T00:07:54.382Z,1117.53
2022-09-15T00:08:51.383Z,1117.52
2022-09-15T00:09:51.390Z,1117.54
2022-09-15T00:10:51.391Z,1117.49
2022-09-15T00:11:51.390Z,1117.53
2022-09-15T00:12:51.427Z,1117.49
2022-09-15T00:13:51.507Z,1117.46
2022-09-15T00:14:51.395Z,1117.56
2022-09-15T00:15:51.399Z,1117.6
2022-09-15T00:16:51.438Z,1117.6
2022-09-15T00:17:51.402Z,1117.62
2022-09-15T00:18:51.401Z,1117.67
2022-09-15T00:19:51.516Z,1117.77
2022-09-15T00:20:51.406Z,1117.79
2022-09-15T00:21:51.409Z,1117.8
2022-09-15T00:22:51.413Z,1117.76
2022-09-15T00:23:51.411Z,1117.79
2022-09-15T00:24:51.414Z,1117.8
2022-09-15T00:25:51.414Z,1117.79
2022-09-15T00:26:51.420Z,1117.77
2022-09-15T00:27:51.417Z,1117.82
2022-09-15T00:28:51.552Z,1117.8
2022-09-15T00:29:51.423Z,1117.78
2022-09-15T00:30:51.482Z,1117.79
2022-09-15T00:31:51.426Z,1117.78
2022-09-15T00:32:51.433Z,1117.83
2022-09-15T00:33:51.537Z,1117.81
2022-09-15T00:34:51.430Z,1117.83
2022-09-15T00:35:51.455Z,1117.85
2022-09-15T00:36:51.438Z,1117.88
2022-09-15T00:37:51.435Z,1117.82
2022-09-15T00:38:51.438Z,1117.86
2022-09-15T00:39:51.458Z,1117.84
2022-09-15T00:40:51.444Z,1117.78
2022-09-15T00:41:51.442Z,1117.75
2022-09-15T00:42:51.447Z,1117.81
2022-09-15T00:43:51.552Z,1117.76
2022-09-15T00:44:51.449Z,1117.75
2022-09-15T00:45:51.506Z,1117.69
2022-09-15T00:47:04.224Z,1117.74
2022-09-15T00:47:51.455Z,1117.74
2022-09-15T00:48:51.461Z,1117.77
2022-09-15T00:49:53.164Z,1117.74
2022-09-15T00:50:51.458Z,1117.7
2022-09-15T00:51:51.572Z,1117.66
2022-09-15T00:52:51.479Z,1117.7
2022-09-15T00:53:51.648Z,1117.63
2022-09-15T00:54:51.485Z,1117.71
2022-09-15T00:55:51.471Z,1117.72
2022-09-15T00:56:51.473Z,1117.7
2022-09-15T00:57:51.484Z,1117.65
2022-09-15T00:58:51.472Z,1117.65
2022-09-15T00:59:51.544Z,1117.63
2022-09-15T01:00:51.506Z,1117.61
2022-09-15T01:01:51.528Z,1117.57
2022-09-15T01:02:51.496Z,1117.61
2022-09-15T01:03:51.483Z,1117.53
2022-09-15T01:04:54.813Z,1117.56
2022-09-15T01:05:51.487Z,1117.53
2022-09-15T01:06:51.491Z,1117.53
2022-09-15T01:07:51.529Z,1117.54
2022-09-15T01:08:51.709Z,1117.54
2022-09-15T01:09:51.495Z,1117.54
2022-09-15T01:10:51.521Z,1117.49
2022-09-15T01:11:51.499Z,1117.54
2022-09-15T01:12:51.518Z,1117.53
2022-09-15T01:13:51.528Z,1117.56
2022-09-15T01:14:51.500Z,1117.58
2022-09-15T01:15:51.502Z,1117.56
2022-09-15T01:16:51.567Z,1117.53
2022-09-15T01:17:51.652Z,1117.52
2022-09-15T01:18:51.635Z,1117.48
2022-09-15T01:19:51.509Z,1117.51
2022-09-15T01:20:51.513Z,1117.48
2022-09-15T01:21:53.687Z,1117.48
2022-09-15T01:22:51.533Z,1117.44
2022-09-15T01:23:51.718Z,1117.48
2022-09-15T01:24:51.524Z,1117.48
2022-09-15T01:25:51.536Z,1117.48
2022-09-15T01:26:51.521Z,1117.44
2022-09-15T01:27:51.538Z,1117.39
2022-09-15T01:28:51.527Z,1117.44
2022-09-15T01:29:54.426Z,1117.42
2022-09-15T01:30:51.527Z,1117.42
2022-09-15T01:31:51.588Z,1117.4
2022-09-15T01:32:51.547Z,1117.44
2022-09-15T01:33:51.535Z,1117.45
2022-09-15T01:34:51.537Z,1117.39
2022-09-15T01:35:51.539Z,1117.43
2022-09-15T01:36:51.540Z,1117.4
2022-09-15T01:37:51.568Z,1117.36
2022-09-15T01:38:51.637Z,1117.42
2022-09-15T01:39:51.640Z,1117.39
2022-09-15T01:40:54.396Z,1117.32
2022-09-15T01:41:51.551Z,1117.29
2022-09-15T01:42:51.572Z,1117.35
2022-09-15T01:43:51.559Z,1117.3
2022-09-15T01:44:51.557Z,1117.41
2022-09-15T01:45:51.598Z,1117.32
2022-09-15T01:46:51.558Z,1117.37
2022-09-15T01:47:51.573Z,1117.34
2022-09-15T01:48:51.561Z,1117.25
2022-09-15T01:49:51.562Z,1117.28
2022-09-15T01:50:51.565Z,1117.26
2022-09-15T01:51:54.710Z,1117.2
2022-09-15T01:52:51.585Z,1117.22
2022-09-15T01:53:51.681Z,1117.26
2022-09-15T01:54:51.572Z,1117.29
2022-09-15T01:55:51.600Z,1117.31
2022-09-15T01:56:51.577Z,1117.3
2022-09-15T01:57:51.593Z,1117.28
2022-09-15T01:58:51.585Z,1117.28
2022-09-15T01:59:51.579Z,1117.3
2022-09-15T02:00:51.615Z,1117.3
2022-09-15T02:01:51.678Z,1117.34
2022-09-15T02:02:54.646Z,1117.26
2022-09-15T02:03:51.586Z,1117.31
2022-09-15T02:04:51.591Z,1117.38
2022-09-15T02:05:51.602Z,1117.32
2022-09-15T02:06:51.595Z,1117.35
2022-09-15T02:07:51.594Z,1117.31
2022-09-15T02:08:51.688Z,1117.35
2022-09-15T02:09:51.596Z,1117.43
2022-09-15T02:10:51.599Z,1117.43
2022-09-15T02:11:51.626Z,1117.43
2022-09-15T02:12:51.601Z,1117.46
2022-09-15T02:13:51.605Z,1117.43
2022-09-15T02:14:51.607Z,1117.43
2022-09-15T02:15:51.656Z,1117.41
2022-09-15T02:16:51.637Z,1117.44
2022-09-15T02:17:51.613Z,1117.42
2022-09-15T02:18:51.614Z,1117.42
2022-09-15T02:19:51.615Z,1117.39
2022-09-15T02:20:51.620Z,1117.36
2022-09-15T02:21:51.620Z,1117.41
2022-09-15T02:22:51.622Z,1117.39
2022-09-15T02:23:51.746Z,1117.36
2022-09-15T02:24:51.625Z,1117.35
2022-09-15T02:25:51.639Z,1117.33
2022-09-15T02:26:51.627Z,1117.28
2022-09-15T02:27:51.656Z,1117.36
2022-09-15T02:28:51.717Z,1117.37
2022-09-15T02:29:51.633Z,1117.33
2022-09-15T02:30:51.638Z,1117.35
2022-09-15T02:31:51.675Z,1117.34
2022-09-15T02:32:51.638Z,1117.36
2022-09-15T02:33:51.638Z,1117.35
2022-09-15T02:34:54.542Z,1117.32
2022-09-15T02:35:51.644Z,1117.3
2022-09-15T02:36:51.643Z,1117.32
2022-09-15T02:37:51.648Z,1117.29
2022-09-15T02:38:51.759Z,1117.32
2022-09-15T02:39:51.713Z,1117.31
2022-09-15T02:40:51.653Z,1117.26
2022-09-15T02:41:51.652Z,1117.27
2022-09-15T02:42:51.654Z,1117.27
2022-09-15T02:43:51.683Z,1117.23
2022-09-15T02:44:51.657Z,1117.2
2022-09-15T02:45:51.692Z,1117.18
2022-09-15T02:46:51.661Z,1117.18
2022-09-15T02:47:51.663Z,1117.17
2022-09-15T02:48:51.666Z,1117.17
2022-09-15T02:49:51.665Z,1117.08
2022-09-15T02:50:51.673Z,1117.05
2022-09-15T02:51:51.678Z,1117.04
2022-09-15T02:52:51.673Z,1117.08
2022-09-15T02:53:51.730Z,1117.11
2022-09-15T02:54:51.675Z,1117.06
2022-09-15T02:55:51.680Z,1117.07
2022-09-15T02:56:51.680Z,1117.05
2022-09-15T02:57:51.682Z,1117.11
2022-09-15T02:58:51.687Z,1117
2022-09-15T02:59:51.709Z,1117.04
2022-09-15T03:00:51.749Z,1116.99
2022-09-15T03:01:51.689Z,1116.95
2022-09-15T03:02:51.690Z,1116.97
2022-09-15T03:03:51.694Z,1117
2022-09-15T03:04:51.694Z,1116.96
2022-09-15T03:05:51.696Z,1116.97
2022-09-15T03:06:51.698Z,1116.92
2022-09-15T03:07:51.710Z,1116.99
2022-09-15T03:08:51.870Z,1116.97
2022-09-15T03:09:51.704Z,1116.93
2022-09-15T03:10:51.708Z,1116.96
2022-09-15T03:11:51.706Z,1116.89
2022-09-15T03:12:51.709Z,1116.93
2022-09-15T03:13:51.708Z,1116.96
2022-09-15T03:14:51.710Z,1116.87
2022-09-15T03:15:51.875Z,1116.84
2022-09-15T03:16:51.716Z,1116.87
2022-09-15T03:17:51.720Z,1116.85
2022-09-15T03:18:51.721Z,1116.86
2022-09-15T03:19:51.730Z,1116.84
2022-09-15T03:20:51.725Z,1116.85
2022-09-15T03:21:51.730Z,1116.9
2022-09-15T03:22:51.738Z,1116.86
2022-09-15T03:23:51.927Z,1116.83
2022-09-15T03:24:51.729Z,1116.84
2022-09-15T03:25:51.730Z,1116.87
2022-09-15T03:26:51.731Z,1116.87
2022-09-15T03:27:51.740Z,1116.91
2022-09-15T03:28:51.736Z,1116.89
2022-09-15T03:29:51.736Z,1116.99
2022-09-15T03:30:51.743Z,1116.97
2022-09-15T03:31:51.829Z,1116.96
2022-09-15T03:32:51.827Z,1116.95
2022-09-15T03:33:51.745Z,1116.99
2022-09-15T03:34:53.236Z,1116.95
2022-09-15T03:35:51.755Z,1117.02
2022-09-15T03:36:51.753Z,1117.03
2022-09-15T03:37:51.763Z,1116.98
2022-09-15T03:38:51.815Z,1116.95
2022-09-15T03:39:51.799Z,1117
2022-09-15T03:40:51.759Z,1116.93
2022-09-15T03:41:51.758Z,1116.97
2022-09-15T03:42:51.760Z,1116.96
2022-09-15T03:43:51.761Z,1116.94
2022-09-15T03:44:51.769Z,1116.93
2022-09-15T03:45:51.795Z,1116.92
2022-09-15T03:46:51.772Z,1116.9
2022-09-15T03:47:51.793Z,1116.87
2022-09-15T03:48:51.897Z,1116.91
2022-09-15T03:49:51.822Z,1116.96
2022-09-15T03:50:51.793Z,1116.93
2022-09-15T03:51:51.778Z,1116.93
2022-09-15T03:52:54.516Z,1116.89
2022-09-15T03:53:51.865Z,1116.89
2022-09-15T03:54:51.782Z,1116.91
2022-09-15T03:55:51.784Z,1116.89
2022-09-15T03:56:54.654Z,1116.92
2022-09-15T03:57:51.790Z,1116.97
2022-09-15T03:58:51.838Z,1117.04
2022-09-15T03:59:51.789Z,1117.03
2022-09-15T04:00:51.843Z,1117.08
2022-09-15T04:01:51.831Z,1117.08
2022-09-15T04:02:51.795Z,1117.08
2022-09-15T04:03:51.820Z,1117.06
2022-09-15T04:04:51.801Z,1117.1
2022-09-15T04:05:51.805Z,1117.09
2022-09-15T04:06:51.806Z,1117.05
2022-09-15T04:07:54.835Z,1117.07
2022-09-15T04:08:51.892Z,1117.1
2022-09-15T04:09:51.818Z,1117.09
2022-09-15T04:10:51.812Z,1117.09
2022-09-15T04:11:51.813Z,1117.07
2022-09-15T04:12:51.813Z,1117.16
2022-09-15T04:13:51.826Z,1117.06
2022-09-15T04:14:51.816Z,1117.09
2022-09-15T04:15:51.857Z,1117.05
2022-09-15T04:16:51.831Z,1117.07
2022-09-15T04:17:51.824Z,1117.01
2022-09-15T04:18:54.870Z,1117.01
2022-09-15T04:19:51.824Z,1117.07
2022-09-15T04:20:51.835Z,1117.07
2022-09-15T04:21:51.832Z,1117.07
2022-09-15T04:22:51.831Z,1117.08
2022-09-15T04:23:51.980Z,1117.04
2022-09-15T04:24:51.834Z,1117.1
2022-09-15T04:25:51.836Z,1117.08
2022-09-15T04:26:51.839Z,1117.07
2022-09-15T04:27:51.844Z,1117.06
2022-09-15T04:28:51.842Z,1117.09
2022-09-15T04:29:54.726Z,1117.09
2022-09-15T04:30:51.856Z,1117.05
2022-09-15T04:31:51.918Z,1116.98
2022-09-15T04:32:51.848Z,1117.05
2022-09-15T04:33:51.851Z,1116.99
2022-09-15T04:34:51.877Z,1116.99
2022-09-15T04:35:51.853Z,1117.05
2022-09-15T04:36:51.855Z,1117.02
2022-09-15T04:37:51.858Z,1117.05
2022-09-15T04:38:52.059Z,1117.06
2022-09-15T04:39:51.915Z,1117.02
2022-09-15T04:40:51.865Z,1117.02
2022-09-15T04:41:51.866Z,1117.01
2022-09-15T04:42:51.961Z,1117.02
2022-09-15T04:43:51.867Z,1116.94
2022-09-15T04:44:51.868Z,1116.93
2022-09-15T04:45:51.873Z,1116.96
2022-09-15T04:46:51.976Z,1116.97
2022-09-15T04:47:51.879Z,1116.93
2022-09-15T04:48:51.880Z,1116.94
2022-09-15T04:49:51.882Z,1116.93
2022-09-15T04:50:51.987Z,1116.92
2022-09-15T04:51:51.885Z,1116.94
2022-09-15T04:52:51.903Z,1116.93
2022-09-15T04:53:52.185Z,1116.93
2022-09-15T04:54:51.888Z,1116.93
2022-09-15T04:55:51.893Z,1116.93
2022-09-15T04:56:51.891Z,1116.94
2022-09-15T04:57:51.897Z,1116.91
2022-09-15T04:58:51.898Z,1116.94
2022-09-15T04:59:51.896Z,1116.94
2022-09-15T05:00:51.936Z,1116.92
2022-09-15T05:01:54.995Z,1116.96
2022-09-15T05:02:51.909Z,1116.89
2022-09-15T05:03:51.904Z,1116.91
2022-09-15T05:04:51.917Z,1116.92
2022-09-15T05:05:51.912Z,1116.89
2022-09-15T05:06:51.934Z,1116.9
2022-09-15T05:07:51.910Z,1116.89
2022-09-15T05:08:51.988Z,1116.94
2022-09-15T05:09:51.914Z,1116.88
2022-09-15T05:10:51.920Z,1116.9
2022-09-15T05:11:51.920Z,1116.82
2022-09-15T05:12:51.921Z,1116.86
2022-09-15T05:13:51.937Z,1116.86
2022-09-15T05:14:51.921Z,1116.85
2022-09-15T05:15:51.999Z,1116.87
2022-09-15T05:16:51.923Z,1116.76
2022-09-15T05:17:51.927Z,1116.83
2022-09-15T05:18:51.965Z,1116.84
2022-09-15T05:19:51.930Z,1116.83
2022-09-15T05:20:52.006Z,1116.85
2022-09-15T05:21:51.939Z,1116.89
2022-09-15T05:22:52.187Z,1116.84
2022-09-15T05:23:52.361Z,1116.91
2022-09-15T05:24:51.979Z,1116.88
2022-09-15T05:25:52.017Z,1116.88
2022-09-15T05:26:51.945Z,1116.94
2022-09-15T05:27:51.947Z,1116.94
2022-09-15T05:28:51.964Z,1116.96
2022-09-15T05:30:00.391Z,1116.98
2022-09-15T05:30:51.951Z,1116.97
2022-09-15T05:31:51.999Z,1116.97
2022-09-15T05:32:51.955Z,1117.06
2022-09-15T05:33:55.310Z,1117.04
2022-09-15T05:34:52.039Z,1117.06
2022-09-15T05:35:52.036Z,1117.01
2022-09-15T05:36:51.997Z,1117.04
2022-09-15T05:37:51.963Z,1117.04
2022-09-15T05:38:52.159Z,1117.08
2022-09-15T05:39:52.036Z,1117.08
2022-09-15T05:40:51.968Z,1117.04
2022-09-15T05:41:51.970Z,1117.07
2022-09-15T05:42:53.065Z,1117.13
2022-09-15T05:43:52.047Z,1117.09
2022-09-15T05:44:52.025Z,1117.1
2022-09-15T05:45:51.977Z,1117.05
2022-09-15T05:46:52.054Z,1117.05
2022-09-15T05:47:51.981Z,1117.06
2022-09-15T05:48:51.997Z,1117.05
2022-09-15T05:49:51.984Z,1117.01
2022-09-15T05:50:51.991Z,1117.08
2022-09-15T05:51:51.996Z,1117.06
2022-09-15T05:52:51.989Z,1117.15
2022-09-15T05:53:52.179Z,1117.09
2022-09-15T05:54:54.684Z,1117.1
2022-09-15T05:55:51.995Z,1117.11
2022-09-15T05:56:51.999Z,1117.01
2022-09-15T05:57:51.999Z,1117.02
2022-09-15T05:58:52.017Z,1117.02
2022-09-15T05:59:52.001Z,1117.05
2022-09-15T06:00:52.005Z,1117.03
2022-09-15T06:01:52.079Z,1116.99
2022-09-15T06:02:52.036Z,1116.97
2022-09-15T06:03:52.026Z,1116.98
2022-09-15T06:04:52.011Z,1116.96
2022-09-15T06:05:52.017Z,1116.93
2022-09-15T06:06:52.014Z,1116.97
2022-09-15T06:07:52.016Z,1117
2022-09-15T06:08:56.942Z,1116.91
2022-09-15T06:09:52.021Z,1116.95
2022-09-15T06:10:52.059Z,1116.9
2022-09-15T06:11:52.049Z,1116.94
2022-09-15T06:12:52.029Z,1116.95
2022-09-15T06:13:52.086Z,1116.89
2022-09-15T06:14:52.027Z,1116.88
2022-09-15T06:15:52.056Z,1116.95
2022-09-15T06:16:52.030Z,1116.89
2022-09-15T06:17:52.078Z,1116.93
2022-09-15T06:18:52.256Z,1116.89
2022-09-15T06:19:52.049Z,1116.94
2022-09-15T06:20:52.097Z,1116.94
2022-09-15T06:21:52.046Z,1116.89
2022-09-15T06:22:52.041Z,1116.84
2022-09-15T06:23:52.843Z,1116.96
2022-09-15T06:24:52.050Z,1116.91
2022-09-15T06:25:52.071Z,1116.9
2022-09-15T06:26:52.091Z,1116.87
2022-09-15T06:27:52.053Z,1117.03
2022-09-15T06:28:52.053Z,1116.91
2022-09-15T06:29:52.054Z,1116.99
2022-09-15T06:30:52.061Z,1117.06
2022-09-15T06:31:52.250Z,1117.01
2022-09-15T06:32:52.298Z,1117.02
2022-09-15T06:33:52.201Z,1116.99
2022-09-15T06:34:54.923Z,1117.04
2022-09-15T06:35:52.066Z,1117.1
2022-09-15T06:36:52.082Z,1117.06
2022-09-15T06:37:52.074Z,1117.17
2022-09-15T06:38:52.080Z,1117.06
2022-09-15T06:39:52.117Z,1117.13
2022-09-15T06:40:52.078Z,1117.16
2022-09-15T06:42:02.123Z,1117.15
2022-09-15T06:42:52.104Z,1117.2
2022-09-15T06:43:52.168Z,1117.29
2022-09-15T06:44:52.080Z,1117.25
2022-09-15T06:45:55.188Z,1117.33
2022-09-15T06:46:52.084Z,1117.34
2022-09-15T06:48:07.565Z,1117.43
2022-09-15T06:48:52.097Z,1117.53
2022-09-15T06:49:52.089Z,1117.53
2022-09-15T06:50:52.094Z,1117.58
2022-09-15T06:51:52.094Z,1117.65
2022-09-15T06:52:52.098Z,1117.9
2022-09-15T06:53:52.096Z,1118.08
2022-09-15T06:54:52.097Z,1117.95
2022-09-15T06:55:52.100Z,1118.04
2022-09-15T06:56:54.901Z,1118.05
2022-09-15T06:57:52.104Z,1118.06
2022-09-15T06:58:52.314Z,1118.14
2022-09-15T06:59:52.108Z,1118.1
2022-09-15T07:00:52.111Z,1118.15
2022-09-15T07:01:52.149Z,1118.09
2022-09-15T07:02:52.207Z,1117.9
2022-09-15T07:03:52.211Z,1117.78
2022-09-15T07:04:52.116Z,1117.67
2022-09-15T07:05:52.118Z,1117.55
2022-09-15T07:06:52.125Z,1117.5
2022-09-15T07:07:52.126Z,1117.43
2022-09-15T07:08:52.186Z,1117.61
2022-09-15T07:09:52.126Z,1117.72
2022-09-15T07:10:52.127Z,1117.62
2022-09-15T07:11:52.131Z,1117.66
2022-09-15T07:12:52.132Z,1117.65
2022-09-15T07:13:52.234Z,1117.76
2022-09-15T07:14:52.158Z,1117.86
2022-09-15T07:15:52.219Z,1117.9
2022-09-15T07:16:52.200Z,1117.96
2022-09-15T07:17:52.148Z,1117.99
2022-09-15T07:18:52.140Z,1117.97
2022-09-15T07:19:52.148Z,1117.96
2022-09-15T07:20:52.144Z,1118.01
2022-09-15T07:21:52.148Z,1118.04
2022-09-15T07:22:52.149Z,1118.09
2022-09-15T07:23:52.311Z,1118.19
2022-09-15T07:24:52.149Z,1118.11
2022-09-15T07:25:52.153Z,1118.1
2022-09-15T07:26:52.163Z,1118.12
2022-09-15T07:27:52.156Z,1118.19
2022-09-15T07:28:55.228Z,1118.19
2022-09-15T07:29:52.164Z,1118.27
2022-09-15T07:30:52.189Z,1118.21
2022-09-15T07:31:52.233Z,1118.31
2022-09-15T07:32:52.168Z,1118.24
2022-09-15T07:33:52.339Z,1118.3
2022-09-15T07:34:53.672Z,1118.3
2022-09-15T07:35:52.171Z,1118.35
2022-09-15T07:36:52.170Z,1118.35
2022-09-15T07:37:52.175Z,1118.43
2022-09-15T07:38:52.176Z,1118.49
2022-09-15T07:39:55.245Z,1118.56
2022-09-15T07:40:52.183Z,1118.55
2022-09-15T07:41:52.189Z,1118.58
2022-09-15T07:42:52.182Z,1118.62
2022-09-15T07:43:52.184Z,1118.6
2022-09-15T07:44:52.188Z,1118.58
2022-09-15T07:45:52.243Z,1118.62
2022-09-15T07:46:52.216Z,1118.62
2022-09-15T07:47:52.195Z,1118.65
2022-09-15T07:48:52.295Z,1118.66
2022-09-15T07:49:52.199Z,1118.75
2022-09-15T07:50:52.202Z,1118.85
2022-09-15T07:51:52.208Z,1118.87
2022-09-15T07:52:52.204Z,1118.9
2022-09-15T07:53:52.206Z,1118.94
2022-09-15T07:54:52.206Z,1118.92
2022-09-15T07:55:52.207Z,1118.95
2022-09-15T07:56:52.213Z,1118.94
2022-09-15T07:57:52.214Z,1119.01
2022-09-15T07:58:52.210Z,1119.07
2022-09-15T07:59:52.213Z,1119.08
2022-09-15T08:00:52.320Z,1119.07
2022-09-15T08:01:52.261Z,1119.09
2022-09-15T08:02:52.245Z,1119.03
2022-09-15T08:03:52.489Z,1119.11
2022-09-15T08:04:52.223Z,1119.08
2022-09-15T08:05:52.225Z,1119.06
2022-09-15T08:06:52.224Z,1119.07
2022-09-15T08:07:52.244Z,1118.99
2022-09-15T08:08:55.199Z,1118.86
2022-09-15T08:09:52.233Z,1118.45
2022-09-15T08:10:52.237Z,1118.02
2022-09-15T08:11:52.270Z,1117.85
2022-09-15T08:12:52.237Z,1117.73
2022-09-15T08:13:52.241Z,1117.44
2022-09-15T08:14:52.240Z,1117.39
2022-09-15T08:15:52.382Z,1117.39
2022-09-15T08:16:52.243Z,1117.27
2022-09-15T08:17:52.251Z,1117.26
2022-09-15T08:18:52.505Z,1117.12
2022-09-15T08:19:52.248Z,1117.1
2022-09-15T08:20:52.254Z,1117.09
2022-09-15T08:21:52.254Z,1117.07
2022-09-15T08:22:52.255Z,1117.11
2022-09-15T08:23:52.260Z,1117.09
2022-09-15T08:24:52.258Z,1117.03
2022-09-15T08:25:52.262Z,1116.98
2022-09-15T08:26:52.262Z,1116.99
2022-09-15T08:27:52.264Z,1116.84
2022-09-15T08:28:52.328Z,1116.77
2022-09-15T08:29:52.284Z,1116.64
2022-09-15T08:30:52.274Z,1116.46
2022-09-15T08:31:52.274Z,1116.21
2022-09-15T08:32:52.273Z,1116.23
2022-09-15T08:33:52.278Z,1116.34
2022-09-15T08:34:52.318Z,1116.51
2022-09-15T08:35:52.277Z,1116.64
2022-09-15T08:36:52.282Z,1116.78
2022-09-15T08:37:52.280Z,1116.87
2022-09-15T08:38:52.282Z,1116.95
2022-09-15T08:39:52.389Z,1117
2022-09-15T08:40:52.284Z,1117.1
2022-09-15T08:41:52.289Z,1117.21
2022-09-15T08:42:52.287Z,1117.27
2022-09-15T08:43:52.369Z,1117.46
2022-09-15T08:44:52.345Z,1117.52
2022-09-15T08:45:52.295Z,1117.74
2022-09-15T08:46:52.347Z,1117.82
2022-09-15T08:47:52.296Z,1117.97
2022-09-15T08:48:52.305Z,1118.02
2022-09-15T08:49:52.746Z,1118.14
2022-09-15T08:50:55.447Z,1118.2
2022-09-15T08:51:52.304Z,1118.31
2022-09-15T08:52:52.311Z,1118.35
2022-09-15T08:53:52.404Z,1118.42
2022-09-15T08:54:52.331Z,1118.53
2022-09-15T08:55:52.315Z,1118.6
2022-09-15T08:56:52.317Z,1118.71
2022-09-15T08:57:52.316Z,1118.79
2022-09-15T08:58:52.320Z,1118.78
2022-09-15T08:59:52.336Z,1118.79
2022-09-15T09:00:52.325Z,1118.85
2022-09-15T09:01:55.480Z,1118.92
2022-09-15T09:02:52.368Z,1118.92
2022-09-15T09:03:52.329Z,1118.94
2022-09-15T09:04:52.347Z,1119
2022-09-15T09:05:52.333Z,1119.03
2022-09-15T09:06:52.367Z,1119.05
2022-09-15T09:07:52.335Z,1119.12
2022-09-15T09:08:52.520Z,1119.15
2022-09-15T09:09:52.353Z,1119.15
2022-09-15T09:10:52.338Z,1119.2
2022-09-15T09:11:52.344Z,1119.22
2022-09-15T09:12:55.106Z,1119.26
2022-09-15T09:13:52.345Z,1119.3
2022-09-15T09:14:52.366Z,1119.34
2022-09-15T09:15:52.385Z,1119.38
2022-09-15T09:16:52.353Z,1119.44
2022-09-15T09:17:52.359Z,1119.44
2022-09-15T09:18:52.358Z,1119.46
2022-09-15T09:19:52.584Z,1119.46
2022-09-15T09:20:52.359Z,1119.45
2022-09-15T09:21:52.361Z,1119.57
2022-09-15T09:22:52.386Z,1119.63
2022-09-15T09:23:55.145Z,1119.64
2022-09-15T09:24:52.381Z,1119.69
2022-09-15T09:25:52.372Z,1119.75
2022-09-15T09:26:52.368Z,1119.84
2022-09-15T09:27:52.373Z,1119.92
2022-09-15T09:28:52.373Z,1120.01
2022-09-15T09:29:52.394Z,1119.97
2022-09-15T09:30:52.418Z,1120.01
2022-09-15T09:31:52.379Z,1119.99
2022-09-15T09:32:52.381Z,1120.03
2022-09-15T09:33:52.381Z,1120.05
2022-09-15T09:34:52.408Z,1120.11
2022-09-15T09:35:52.384Z,1120.13
2022-09-15T09:36:52.386Z,1120.14
2022-09-15T09:37:52.398Z,1120.2
2022-09-15T09:38:52.484Z,1120.19
2022-09-15T09:39:52.496Z,1120.21
2022-09-15T09:40:52.398Z,1120.19
2022-09-15T09:41:52.398Z,1120.22
2022-09-15T09:42:52.396Z,1120.11
2022-09-15T09:43:52.518Z,1120.14
2022-09-15T09:44:52.432Z,1120.09
2022-09-15T09:45:52.457Z,1120.08
2022-09-15T09:46:52.407Z,1120.04
2022-09-15T09:47:52.407Z,1120.03
2022-09-15T09:48:52.409Z,1119.99
2022-09-15T09:49:52.433Z,1119.99
2022-09-15T09:50:52.416Z,1120.05
2022-09-15T09:51:52.416Z,1119.94
2022-09-15T09:52:52.415Z,1119.86
2022-09-15T09:53:52.619Z,1119.75
2022-09-15T09:54:52.457Z,1119.58
2022-09-15T09:55:55.300Z,1119.46
2022-09-15T09:56:52.421Z,1119.34
2022-09-15T09:57:52.426Z,1119.17
2022-09-15T09:58:52.425Z,1118.99
2022-09-15T09:59:52.443Z,1118.73
2022-09-15T10:00:52.435Z,1118.5
2022-09-15T10:01:52.460Z,1118.24
2022-09-15T10:02:52.432Z,1118.03
2022-09-15T10:03:52.434Z,1117.92
2022-09-15T10:04:52.490Z,1117.68
2022-09-15T10:05:52.437Z,1117.64
2022-09-15T10:06:55.487Z,1117.56
2022-09-15T10:07:52.443Z,1117.68
2022-09-15T10:08:52.599Z,1117.72
2022-09-15T10:09:52.460Z,1117.77
2022-09-15T10:10:52.470Z,1117.88
2022-09-15T10:11:52.445Z,1117.92
2022-09-15T10:12:52.462Z,1118.04
2022-09-15T10:13:52.456Z,1118.06
2022-09-15T10:14:52.670Z,1118.11
2022-09-15T10:15:52.458Z,1118.09
2022-09-15T10:16:52.492Z,1118.15
2022-09-15T10:17:52.462Z,1118.28
2022-09-15T10:18:54.519Z,1118.4
2022-09-15T10:19:52.477Z,1118.58
2022-09-15T10:20:52.465Z,1118.76
2022-09-15T10:21:52.466Z,1118.84
2022-09-15T10:22:52.470Z,1118.92
2022-09-15T10:23:52.582Z,1119.03
2022-09-15T10:24:52.491Z,1119.17
2022-09-15T10:25:59.343Z,1119.2
2022-09-15T10:26:52.499Z,1119.24
2022-09-15T10:27:52.477Z,1119.33
2022-09-15T10:28:52.478Z,1119.4
2022-09-15T10:29:52.501Z,1119.54
2022-09-15T10:30:52.481Z,1119.58
2022-09-15T10:31:52.585Z,1119.58
2022-09-15T10:32:52.488Z,1119.6
2022-09-15T10:33:52.509Z,1119.56
2022-09-15T10:34:52.532Z,1119.52
2022-09-15T10:35:52.494Z,1119.51
2022-09-15T10:36:52.494Z,1119.42
2022-09-15T10:37:52.499Z,1119.37
2022-09-15T10:38:52.563Z,1119.36
2022-09-15T10:39:52.563Z,1119.34
2022-09-15T10:40:52.509Z,1119.36
2022-09-15T10:41:52.506Z,1119.45
2022-09-15T10:42:52.531Z,1119.51
2022-09-15T10:43:52.505Z,1119.64
2022-09-15T10:44:52.526Z,1119.72
2022-09-15T10:45:52.536Z,1119.86
2022-09-15T10:46:52.515Z,1119.88
2022-09-15T10:47:52.511Z,1119.96
2022-09-15T10:48:52.518Z,1119.94
2022-09-15T10:49:52.536Z,1119.95
2022-09-15T10:50:52.516Z,1119.9
2022-09-15T10:51:52.520Z,1119.87
2022-09-15T10:52:52.521Z,1119.82
2022-09-15T10:53:55.642Z,1119.8
2022-09-15T10:54:52.539Z,1119.81
2022-09-15T10:55:53.489Z,1119.75
2022-09-15T10:56:52.529Z,1119.82
2022-09-15T10:57:52.535Z,1119.77
2022-09-15T10:58:52.598Z,1119.72
2022-09-15T10:59:52.553Z,1119.62
2022-09-15T11:00:52.600Z,1119.49
2022-09-15T11:01:52.571Z,1119.31
2022-09-15T11:02:52.538Z,1119.22
2022-09-15T11:03:52.547Z,1119.01
2022-09-15T11:04:52.559Z,1118.87
2022-09-15T11:05:52.546Z,1118.79
2022-09-15T11:06:52.568Z,1118.69
2022-09-15T11:07:52.567Z,1118.61
2022-09-15T11:08:52.659Z,1118.56
2022-09-15T11:09:52.606Z,1118.51
2022-09-15T11:10:52.551Z,1118.48
2022-09-15T11:11:52.556Z,1118.45
2022-09-15T11:12:52.554Z,1118.48
2022-09-15T11:13:52.555Z,1118.43
2022-09-15T11:14:52.600Z,1118.42
2022-09-15T11:15:52.630Z,1118.42
2022-09-15T11:16:52.569Z,1118.43
2022-09-15T11:17:55.320Z,1118.4
2022-09-15T11:18:52.564Z,1118.4
2022-09-15T11:19:52.583Z,1118.39
2022-09-15T11:20:52.569Z,1118.46
2022-09-15T11:21:52.571Z,1118.47
2022-09-15T11:22:52.574Z,1118.52
2022-09-15T11:23:52.716Z,1118.52
2022-09-15T11:24:52.601Z,1118.54
2022-09-15T11:25:52.579Z,1118.6
2022-09-15T11:26:52.579Z,1118.63
2022-09-15T11:27:52.585Z,1118.7
2022-09-15T11:28:55.693Z,1118.77
2022-09-15T11:29:52.604Z,1118.89
2022-09-15T11:30:52.610Z,1118.95
2022-09-15T11:31:52.681Z,1119.02
2022-09-15T11:32:54.185Z,1119.04
2022-09-15T11:33:52.765Z,1119
2022-09-15T11:34:52.627Z,1118.99
2022-09-15T11:35:52.598Z,1118.91
2022-09-15T11:36:52.599Z,1118.88
2022-09-15T11:37:52.602Z,1118.79
2022-09-15T11:38:52.617Z,1118.79
2022-09-15T11:39:54.147Z,1118.79
2022-09-15T11:40:52.610Z,1118.75
2022-09-15T11:41:52.606Z,1118.67
2022-09-15T11:42:52.609Z,1118.55
2022-09-15T11:43:52.612Z,1118.39
2022-09-15T11:44:52.616Z,1118.28
2022-09-15T11:45:52.884Z,1118.18
2022-09-15T11:46:52.693Z,1118
2022-09-15T11:47:53.009Z,1117.84
2022-09-15T11:48:52.729Z,1117.7
2022-09-15T11:49:52.620Z,1117.57
2022-09-15T11:50:55.653Z,1117.42
2022-09-15T11:51:52.626Z,1117.39
2022-09-15T11:52:52.626Z,1117.34
2022-09-15T11:53:52.633Z,1117.39
2022-09-15T11:54:52.633Z,1117.52
2022-09-15T11:55:52.634Z,1117.68
2022-09-15T11:56:52.639Z,1117.83
2022-09-15T11:57:52.644Z,1118.03
2022-09-15T11:58:55.483Z,1118.13
2022-09-15T11:59:52.645Z,1118.39
2022-09-15T12:00:52.644Z,1118.5
2022-09-15T12:01:52.738Z,1118.66
2022-09-15T12:02:52.703Z,1118.78
2022-09-15T12:03:52.857Z,1118.88
2022-09-15T12:04:52.650Z,1118.92
2022-09-15T12:05:52.650Z,1118.94
2022-09-15T12:06:52.709Z,1119.01
2022-09-15T12:07:52.662Z,1119.05
2022-09-15T12:08:52.710Z,1119.12